Time;durP1;ratioP1;P1;durP2;ratioP2;P2;SDS_P1;SDS_P2;PMS_P1;PMS_P2;Temp;Humidity;BMP_temperature;BMP_pressure;BME280_temperature;BME280_humidity;BME280_pressure;Samples;Min_cycle;Max_cycle;Signal;HPM_P1;HPM_P2
2023/12/31 00:01:23;;;;;;;0.90;0.60;;;;;;;6.03;99.27;94944.53;4999863;28;20202;-71
2023/12/31 00:03:50;;;;;;;2.47;1.85;;;;;;;5.93;99.35;94944.69;4998853;28;20280;-71
2023/12/31 00:06:17;;;;;;;3.42;1.75;;;;;;;6.07;99.04;94945.56;5001313;28;20196;-71
2023/12/31 00:08:44;;;;;;;1.00;1.00;;;;;;;6.32;97.64;94953.22;4999208;28;20200;-71
2023/12/31 00:11:11;;;;;;;1.45;0.88;;;;;;;6.22;96.46;94941.84;5000577;28;20205;-71
2023/12/31 00:13:37;;;;;;;1.02;0.68;;;;;;;6.22;95.88;94942.63;5000153;28;20209;-71
2023/12/31 00:16:05;;;;;;;0.43;0.43;;;;;;;6.17;96.01;94956.16;5004122;28;20209;-71
2023/12/31 00:18:33;;;;;;;0.20;0.20;;;;;;;6.20;97.91;94950.19;4999323;28;20996;-72
2023/12/31 00:21:00;;;;;;;0.77;0.77;;;;;;;6.27;97.37;94956.03;5000312;28;20210;-72
2023/12/31 00:23:27;;;;;;;1.17;0.55;;;;;;;6.30;97.79;94950.03;4998276;28;20208;-72
2023/12/31 00:25:54;;;;;;;1.40;1.30;;;;;;;6.11;96.75;94951.94;4999735;28;20229;-72
2023/12/31 00:28:21;;;;;;;0.38;0.38;;;;;;;6.19;97.85;94953.97;4998879;28;20205;-71
2023/12/31 00:30:47;;;;;;;0.38;0.38;;;;;;;6.21;97.70;94954.47;5006245;28;20288;-71
2023/12/31 00:33:14;;;;;;;0.25;0.25;;;;;;;6.17;97.94;94966.91;5004465;28;20647;-72
2023/12/31 00:35:43;;;;;;;0.45;0.45;;;;;;;6.31;97.40;94957.00;5002966;28;20651;-72
2023/12/31 00:38:10;;;;;;;0.70;0.70;;;;;;;6.20;98.14;94966.34;5006773;28;20209;-72
2023/12/31 00:40:37;;;;;;;0.30;0.30;;;;;;;6.18;98.14;94962.34;5006630;28;20206;-72
2023/12/31 00:43:04;;;;;;;0.73;0.73;;;;;;;6.10;97.84;94971.06;5003698;28;20211;-72
2023/12/31 00:45:31;;;;;;;0.80;0.73;;;;;;;6.02;98.36;94969.81;5005184;28;20236;-72
2023/12/31 00:47:58;;;;;;;2.75;1.48;;;;;;;5.81;98.98;94963.09;5006856;28;20209;-72
2023/12/31 00:50:24;;;;;;;1.30;1.23;;;;;;;5.95;98.99;94969.38;5003909;28;20253;-72
2023/12/31 00:52:53;;;;;;;0.85;0.85;;;;;;;5.87;98.73;94956.56;5005025;28;20210;-73
2023/12/31 00:55:19;;;;;;;1.65;1.50;;;;;;;5.87;98.35;94967.31;5005601;28;20229;-71
2023/12/31 00:57:46;;;;;;;2.38;1.38;;;;;;;5.91;98.25;94971.03;5003473;28;20336;-71
2023/12/31 01:00:14;;;;;;;0.55;0.55;;;;;;;6.03;97.99;94960.66;5003513;28;20216;-72
2023/12/31 01:02:41;;;;;;;0.82;0.82;;;;;;;5.98;99.71;94958.06;5004442;28;20233;-72
2023/12/31 01:05:09;;;;;;;0.57;0.57;;;;;;;6.03;98.93;94963.34;5004232;28;20217;-72
2023/12/31 01:07:35;;;;;;;0.30;0.30;;;;;;;6.14;98.51;94956.75;5005192;28;20692;-71
2023/12/31 01:10:04;;;;;;;0.52;0.52;;;;;;;6.29;98.13;94959.19;5005042;28;20204;-72
2023/12/31 01:12:32;;;;;;;10.77;1.15;;;;;;;6.22;97.14;94953.41;5001195;28;20209;-71
2023/12/31 01:14:59;;;;;;;1.90;1.70;;;;;;;6.09;97.62;94954.13;5006169;28;20201;-71
2023/12/31 01:17:26;;;;;;;0.90;0.90;;;;;;;6.24;98.12;94945.84;5005256;28;20276;-72
2023/12/31 01:19:53;;;;;;;1.15;1.05;;;;;;;6.37;98.37;94945.09;5005420;28;20654;-71
2023/12/31 01:22:20;;;;;;;1.02;0.90;;;;;;;6.33;97.75;94940.59;5002795;28;20204;-72
2023/12/31 01:24:47;;;;;;;1.65;1.20;;;;;;;6.41;96.92;94939.94;5006397;28;20225;-72
2023/12/31 01:27:15;;;;;;;0.73;0.73;;;;;;;6.45;96.45;94940.13;5002611;28;20205;-71
2023/12/31 01:29:42;;;;;;;0.88;0.88;;;;;;;6.50;96.42;94942.75;5003289;28;20216;-72
2023/12/31 01:32:09;;;;;;;0.68;0.68;;;;;;;6.35;96.48;94946.47;5005221;28;20205;-72
2023/12/31 01:34:36;;;;;;;0.73;0.73;;;;;;;6.27;95.77;94947.16;5001087;28;20201;-72
2023/12/31 01:37:04;;;;;;;1.00;1.00;;;;;;;6.16;96.80;94941.09;5002483;28;20252;-70
2023/12/31 01:39:31;;;;;;;1.23;1.08;;;;;;;5.96;98.11;94938.72;5003749;28;20201;-72
2023/12/31 01:41:58;;;;;;;1.60;1.50;;;;;;;5.92;97.11;94937.69;5002875;28;20548;-72
2023/12/31 01:44:27;;;;;;;1.27;1.17;;;;;;;5.87;98.60;94937.75;5000875;28;20261;-72
2023/12/31 01:46:55;;;;;;;0.30;0.30;;;;;;;5.72;99.04;94941.44;5002229;28;20218;-72
2023/12/31 01:49:22;;;;;;;0.63;0.63;;;;;;;5.79;98.03;94954.50;5003582;28;20685;-71
2023/12/31 01:51:50;;;;;;;0.95;0.93;;;;;;;5.79;98.38;94949.13;5004073;28;20297;-72
2023/12/31 01:54:19;;;;;;;0.30;0.30;;;;;;;5.78;98.64;94942.97;5005223;28;20233;-72
2023/12/31 01:56:48;;;;;;;0.35;0.35;;;;;;;5.59;98.93;94953.72;5003812;28;20312;-72
2023/12/31 01:59:15;;;;;;;0.30;0.30;;;;;;;5.56;99.64;94951.59;5008154;28;20209;-72
2023/12/31 02:01:45;;;;;;;1.23;0.90;;;;;;;5.42;100.00;94950.69;5001713;28;20207;-71
2023/12/31 02:04:12;;;;;;;0.35;0.35;;;;;;;5.32;100.00;94935.50;5002053;28;20201;-72
2023/12/31 02:06:40;;;;;;;0.73;0.73;;;;;;;5.43;100.00;94933.47;5004678;28;20594;-71
2023/12/31 02:09:08;;;;;;;0.60;0.60;;;;;;;5.51;99.93;94943.56;5001027;28;20219;-72
2023/12/31 02:11:36;;;;;;;0.32;0.32;;;;;;;5.48;99.85;94928.03;5009315;28;20646;-72
2023/12/31 02:14:03;;;;;;;0.90;0.90;;;;;;;5.57;99.86;94930.88;5001626;28;20213;-71
2023/12/31 02:16:30;;;;;;;0.20;0.20;;;;;;;5.56;100.00;94929.28;5006790;28;20297;-71
2023/12/31 02:18:58;;;;;;;1.70;1.05;;;;;;;5.72;100.00;94928.00;5002793;28;20208;-71
2023/12/31 02:21:28;;;;;;;0.20;0.20;;;;;;;5.70;100.00;94925.59;5001691;28;20206;-70
2023/12/31 02:23:55;;;;;;;0.50;0.50;;;;;;;5.68;100.00;94927.78;5002809;28;20216;-73
2023/12/31 02:26:25;;;;;;;0.28;0.28;;;;;;;5.77;99.21;94919.06;5008088;28;20228;-70
2023/12/31 02:28:52;;;;;;;1.33;1.23;;;;;;;5.80;99.78;94913.09;5005369;28;20260;-73
2023/12/31 02:31:19;;;;;;;0.40;0.40;;;;;;;5.76;99.19;94906.72;5005703;28;20201;-73
2023/12/31 02:33:46;;;;;;;4.13;0.77;;;;;;;5.93;98.71;94907.03;5002994;28;20208;-74
2023/12/31 02:36:13;;;;;;;0.20;0.20;;;;;;;5.85;98.82;94899.59;5002497;28;20204;-73
2023/12/31 02:38:39;;;;;;;0.38;0.38;;;;;;;5.83;98.15;94907.16;5001526;28;20213;-72
2023/12/31 02:41:06;;;;;;;0.28;0.28;;;;;;;5.83;98.31;94901.78;5005524;28;20212;-72
2023/12/31 02:43:34;;;;;;;2.00;1.83;;;;;;;5.85;98.83;94910.34;5004387;28;20201;-72
2023/12/31 02:46:01;;;;;;;0.47;0.47;;;;;;;5.82;98.81;94905.56;4999677;28;20225;-71
2023/12/31 02:48:28;;;;;;;0.77;0.77;;;;;;;5.48;100.00;94906.53;5004514;28;20197;-71
2023/12/31 02:50:55;;;;;;;0.50;0.50;;;;;;;5.49;99.88;94908.13;5004731;28;20569;-71
2023/12/31 02:53:22;;;;;;;0.20;0.20;;;;;;;5.50;100.00;94908.94;5002093;28;20206;-71
2023/12/31 02:55:49;;;;;;;0.35;0.35;;;;;;;5.55;99.72;94917.75;5004623;28;20275;-72
2023/12/31 02:58:16;;;;;;;0.20;0.20;;;;;;;5.52;99.11;94907.56;5006646;28;20232;-71
2023/12/31 03:00:44;;;;;;;0.35;0.35;;;;;;;5.52;99.05;94912.13;5004946;28;20208;-70
2023/12/31 03:03:11;;;;;;;5.32;0.82;;;;;;;5.46;99.03;94913.31;5001165;28;20301;-71
2023/12/31 03:05:38;;;;;;;0.90;0.90;;;;;;;5.40;99.77;94914.44;5004591;28;20221;-71
2023/12/31 03:08:06;;;;;;;0.68;0.68;;;;;;;5.26;99.74;94914.34;5001599;28;20226;-71
2023/12/31 03:10:32;;;;;;;0.20;0.20;;;;;;;5.25;100.00;94912.75;5005522;28;20575;-71
2023/12/31 03:12:59;;;;;;;0.22;0.22;;;;;;;5.34;100.00;94911.00;5002527;28;20205;-70
2023/12/31 03:15:26;;;;;;;0.60;0.60;;;;;;;5.10;100.00;94918.28;5002610;28;20543;-71
2023/12/31 03:17:54;;;;;;;1.05;0.40;;;;;;;5.10;100.00;94919.09;5000029;28;20573;-71
2023/12/31 03:20:21;;;;;;;0.30;0.30;;;;;;;5.14;100.00;94916.63;5003049;28;20227;-72
2023/12/31 03:22:48;;;;;;;0.30;0.30;;;;;;;5.18;100.00;94917.66;5002250;28;20209;-70
2023/12/31 03:25:15;;;;;;;0.22;0.22;;;;;;;5.12;100.00;94908.06;4999735;28;20239;-71
2023/12/31 03:27:43;;;;;;;2.10;1.35;;;;;;;5.10;100.00;94910.22;5001567;28;20208;-70
2023/12/31 03:30:10;;;;;;;0.88;0.88;;;;;;;5.03;100.00;94915.16;4999006;28;20217;-71
2023/12/31 03:32:37;;;;;;;0.32;0.32;;;;;;;4.69;100.00;94910.66;5003880;28;20201;-70
2023/12/31 03:35:06;;;;;;;0.32;0.32;;;;;;;4.70;100.00;94901.53;4999186;28;20251;-70
2023/12/31 03:37:33;;;;;;;0.32;0.32;;;;;;;4.61;100.00;94903.25;4998924;28;20197;-70
2023/12/31 03:40:02;;;;;;;0.30;0.30;;;;;;;4.50;100.00;94907.91;4999273;28;20228;-70
2023/12/31 03:42:28;;;;;;;0.40;0.40;;;;;;;4.48;100.00;94898.53;5001125;28;20572;-69
2023/12/31 03:44:55;;;;;;;0.20;0.20;;;;;;;4.40;100.00;94907.19;4999662;28;20201;-70
2023/12/31 03:47:23;;;;;;;0.60;0.60;;;;;;;4.28;100.00;94913.72;5003428;28;20252;-68
2023/12/31 03:49:50;;;;;;;1.48;0.95;;;;;;;3.98;100.00;94916.63;5001673;28;20205;-70
2023/12/31 03:52:18;;;;;;;0.73;0.73;;;;;;;4.03;100.00;94913.91;4999477;28;20205;-70
2023/12/31 03:54:45;;;;;;;0.40;0.40;;;;;;;3.95;100.00;94917.19;5003551;28;20281;-69
2023/12/31 03:57:11;;;;;;;0.57;0.57;;;;;;;3.99;100.00;94914.75;5004107;28;20724;-73
2023/12/31 03:59:38;;;;;;;0.30;0.30;;;;;;;4.03;100.00;94921.94;4999536;28;20260;-71
2023/12/31 04:02:05;;;;;;;0.20;0.20;;;;;;;4.18;100.00;94916.47;4998563;28;20201;-69
2023/12/31 04:04:32;;;;;;;0.50;0.50;;;;;;;3.77;100.00;94915.97;5001910;28;20572;-71
2023/12/31 04:06:59;;;;;;;1.05;0.95;;;;;;;3.95;100.00;94925.22;5002638;28;20245;-71
2023/12/31 04:09:27;;;;;;;0.25;0.25;;;;;;;3.97;100.00;94925.72;5003138;28;20764;-71
2023/12/31 04:11:54;;;;;;;3.47;2.72;;;;;;;3.98;100.00;94924.66;5005155;28;20213;-72
2023/12/31 04:14:21;;;;;;;0.55;0.55;;;;;;;4.18;100.00;94927.19;5002638;28;20213;-70
2023/12/31 04:16:47;;;;;;;6.60;0.63;;;;;;;4.35;100.00;94917.97;5004529;28;20207;-71
2023/12/31 04:19:15;;;;;;;0.52;0.52;;;;;;;4.29;100.00;94933.28;5005249;28;20641;-72
2023/12/31 04:21:42;;;;;;;0.57;0.57;;;;;;;4.11;100.00;94925.91;5000094;28;20659;-70
2023/12/31 04:24:09;;;;;;;0.70;0.70;;;;;;;4.17;100.00;94930.16;5006651;28;20260;-70
2023/12/31 04:26:38;;;;;;;0.63;0.63;;;;;;;4.16;100.00;94932.03;5000771;28;20229;-71
2023/12/31 04:29:04;;;;;;;0.85;0.85;;;;;;;4.12;100.00;94936.34;5003631;28;20617;-69
2023/12/31 04:31:31;;;;;;;0.45;0.45;;;;;;;4.20;100.00;94941.13;5003642;28;20292;-70
2023/12/31 04:33:58;;;;;;;1.15;1.05;;;;;;;3.98;100.00;94943.41;5002787;28;20209;-71
2023/12/31 04:36:25;;;;;;;0.40;0.40;;;;;;;4.08;100.00;94938.00;5003332;28;20247;-69
2023/12/31 04:38:52;;;;;;;0.77;0.77;;;;;;;4.04;100.00;94936.16;5006619;28;20280;-70
2023/12/31 04:41:22;;;;;;;0.82;0.82;;;;;;;4.16;100.00;94929.34;5003474;28;20229;-70
2023/12/31 04:43:50;;;;;;;1.10;1.00;;;;;;;3.96;100.00;94937.56;5002549;28;20288;-71
2023/12/31 04:46:19;;;;;;;0.47;0.47;;;;;;;3.94;100.00;94950.44;5000225;28;20668;-72
2023/12/31 04:48:47;;;;;;;0.60;0.60;;;;;;;4.00;100.00;94941.25;5008395;28;20305;-73
2023/12/31 04:51:24;;;;;;;0.20;0.20;;;;;;;4.00;100.00;94941.25;5004614;28;20647;-71
2023/12/31 04:53:52;;;;;;;0.65;0.60;;;;;;;3.98;100.00;94942.63;5005850;28;20259;-72
2023/12/31 04:56:20;;;;;;;0.88;0.88;;;;;;;3.90;100.00;94946.69;5004314;28;20613;-71
2023/12/31 04:58:47;;;;;;;0.50;0.50;;;;;;;3.84;100.00;94947.78;5003404;28;20722;-72
2023/12/31 05:01:15;;;;;;;0.90;0.90;;;;;;;3.89;100.00;94951.25;5001639;28;20280;-72
2023/12/31 05:03:42;;;;;;;0.52;0.52;;;;;;;3.92;100.00;94956.06;5000805;28;20205;-72
2023/12/31 05:06:11;;;;;;;1.85;1.05;;;;;;;3.92;100.00;94949.91;5004841;28;20225;-71
2023/12/31 05:08:37;;;;;;;0.65;0.65;;;;;;;3.80;100.00;94962.84;5000476;28;20210;-70
2023/12/31 05:11:04;;;;;;;0.30;0.30;;;;;;;3.67;100.00;94952.72;5003100;28;20213;-70
2023/12/31 05:13:32;;;;;;;5.85;2.53;;;;;;;3.66;100.00;94968.00;5006534;28;20215;-71
2023/12/31 05:15:59;;;;;;;6.78;3.20;;;;;;;3.66;100.00;94957.28;5004109;28;20204;-72
2023/12/31 05:18:27;;;;;;;7.80;3.92;;;;;;;3.71;100.00;94961.78;5006037;28;20209;-71
2023/12/31 05:20:54;;;;;;;7.78;4.45;;;;;;;3.66;100.00;94961.84;5000475;28;20217;-71
2023/12/31 05:23:21;;;;;;;8.13;4.07;;;;;;;3.60;100.00;94968.28;5006858;28;20193;-71
2023/12/31 05:25:47;;;;;;;10.77;4.80;;;;;;;3.59;100.00;94967.47;5003046;28;20296;-71
2023/12/31 05:28:14;;;;;;;11.32;4.88;;;;;;;3.56;100.00;94962.66;5001811;28;20251;-71
2023/12/31 05:30:42;;;;;;;2.42;2.22;;;;;;;3.64;100.00;94964.78;5002503;28;20209;-70
2023/12/31 05:33:09;;;;;;;0.80;0.80;;;;;;;3.81;100.00;94959.09;5001065;28;20210;-72
2023/12/31 05:35:38;;;;;;;9.02;4.13;;;;;;;3.92;100.00;94960.63;5002119;28;20209;-70
2023/12/31 05:38:05;;;;;;;6.68;3.92;;;;;;;3.82;100.00;94949.97;5001741;28;20208;-72
2023/12/31 05:40:31;;;;;;;7.30;3.72;;;;;;;3.89;100.00;94956.59;5003928;28;20757;-72
2023/12/31 05:42:58;;;;;;;7.18;3.90;;;;;;;3.81;100.00;94965.25;5003743;28;20209;-71
2023/12/31 05:45:25;;;;;;;8.55;3.75;;;;;;;3.74;100.00;94961.25;5001752;28;20204;-71
2023/12/31 05:47:52;;;;;;;9.38;4.00;;;;;;;3.68;100.00;94951.66;5002696;28;20221;-71
2023/12/31 05:50:19;;;;;;;13.27;6.10;;;;;;;3.55;100.00;94966.47;5003285;28;20563;-71
2023/12/31 05:52:47;;;;;;;3.13;2.90;;;;;;;3.60;100.00;94962.94;5005347;28;20206;-72
2023/12/31 05:55:14;;;;;;;2.13;2.03;;;;;;;3.50;100.00;94964.59;5003230;28;20205;-70
2023/12/31 05:57:43;;;;;;;0.38;0.38;;;;;;;3.46;100.00;94971.56;5003426;28;20234;-70
2023/12/31 06:00:11;;;;;;;4.72;2.90;;;;;;;5.94;100.00;94952.44;5002785;28;20292;-74
2023/12/31 06:02:37;;;;;;;4.88;2.90;;;;;;;9.04;100.00;94944.44;5005694;28;20202;-72
2023/12/31 06:05:05;;;;;;;6.35;3.58;;;;;;;8.61;100.00;94940.69;5003034;28;20208;-73
2023/12/31 06:07:32;;;;;;;0.60;0.60;;;;;;;10.21;100.00;94939.28;5001826;28;20236;-73
2023/12/31 06:10:00;;;;;;;0.82;0.65;;;;;;;10.48;98.07;94934.66;5001573;28;20551;-72
2023/12/31 06:12:28;;;;;;;3.83;0.63;;;;;;;8.29;91.41;94939.78;4999086;28;20578;-71
2023/12/31 06:14:55;;;;;;;0.85;0.80;;;;;;;6.65;91.11;94961.34;5006075;28;20210;-71
2023/12/31 06:17:21;;;;;;;2.65;1.85;;;;;;;5.68;96.03;94965.41;5004810;28;20289;-71
2023/12/31 06:19:48;;;;;;;0.98;0.98;;;;;;;5.32;98.30;94961.56;4998887;28;20209;-70
2023/12/31 06:22:16;;;;;;;1.30;1.20;;;;;;;4.72;98.66;94966.44;5000985;28;20558;-71
2023/12/31 06:24:43;;;;;;;0.75;0.75;;;;;;;4.42;100.00;94967.50;5003001;28;20205;-71
2023/12/31 06:27:11;;;;;;;1.65;0.90;;;;;;;4.27;100.00;94971.09;5000993;28;20230;-71
2023/12/31 06:29:38;;;;;;;0.47;0.47;;;;;;;4.22;100.00;94971.16;5006571;28;20201;-72
2023/12/31 06:32:06;;;;;;;1.50;1.40;;;;;;;3.99;100.00;94974.50;5007431;28;20216;-71
2023/12/31 06:34:32;;;;;;;0.22;0.22;;;;;;;4.06;100.00;94977.69;5002890;28;20654;-72
2023/12/31 06:36:59;;;;;;;0.75;0.75;;;;;;;4.03;100.00;94978.22;5003724;28;20666;-71
2023/12/31 06:39:26;;;;;;;1.52;1.48;;;;;;;4.25;100.00;94978.63;5011736;28;20209;-72
2023/12/31 06:41:53;;;;;;;1.05;1.05;;;;;;;4.26;100.00;94977.53;5001441;28;20218;-76
2023/12/31 06:44:21;;;;;;;1.45;1.38;;;;;;;4.44;100.00;94980.63;4999680;28;20613;-70
2023/12/31 06:46:48;;;;;;;0.65;0.65;;;;;;;4.48;100.00;94979.00;5001331;28;20262;-70
2023/12/31 06:49:15;;;;;;;0.20;0.20;;;;;;;4.43;100.00;94981.72;4999225;28;20205;-69
2023/12/31 06:51:42;;;;;;;0.57;0.57;;;;;;;4.46;100.00;94987.31;5002268;28;20224;-71
2023/12/31 06:54:09;;;;;;;0.85;0.85;;;;;;;4.29;100.00;94976.19;5003420;28;20231;-71
2023/12/31 06:56:36;;;;;;;1.38;1.00;;;;;;;3.97;100.00;94990.06;5002181;28;20271;-71
2023/12/31 06:59:03;;;;;;;0.38;0.38;;;;;;;3.74;100.00;94985.38;5002826;28;20239;-71
2023/12/31 07:01:31;;;;;;;2.30;0.60;;;;;;;3.62;100.00;95011.69;5002029;28;20209;-70
2023/12/31 07:03:58;;;;;;;0.95;0.95;;;;;;;3.66;100.00;94994.00;5001833;28;20202;-69
2023/12/31 07:06:26;;;;;;;14.77;7.55;;;;;;;3.78;100.00;94997.94;5000696;28;20229;-71
2023/12/31 07:08:52;;;;;;;14.13;7.07;;;;;;;3.84;100.00;95001.38;4997549;28;20244;-71
2023/12/31 07:11:19;;;;;;;15.00;7.10;;;;;;;4.06;100.00;94992.97;4999963;28;20236;-71
2023/12/31 07:13:46;;;;;;;17.02;7.80;;;;;;;4.26;100.00;94999.00;5002109;28;20251;-70
2023/12/31 07:16:15;;;;;;;1.13;1.02;;;;;;;4.41;100.00;95000.75;5007692;28;20205;-71
2023/12/31 07:18:44;;;;;;;1.65;1.55;;;;;;;4.51;100.00;94994.53;5000098;28;20210;-72
2023/12/31 07:21:11;;;;;;;1.30;1.20;;;;;;;4.73;100.00;94992.19;4999409;28;20212;-71
2023/12/31 07:23:39;;;;;;;0.40;0.40;;;;;;;4.93;100.00;94991.19;4998586;28;20571;-71
2023/12/31 07:26:07;;;;;;;1.98;1.10;;;;;;;5.09;100.00;94983.81;4999444;28;20205;-70
2023/12/31 07:28:34;;;;;;;0.60;0.60;;;;;;;5.35;100.00;94998.56;4997806;28;20661;-71
2023/12/31 07:31:01;;;;;;;1.00;1.00;;;;;;;5.43;100.00;94995.28;5001910;28;20221;-70
2023/12/31 07:33:28;;;;;;;2.08;1.95;;;;;;;5.44;100.00;94991.50;5002383;28;20240;-72
2023/12/31 07:35:56;;;;;;;1.17;1.10;;;;;;;5.53;100.00;94983.59;5000206;28;20220;-70
2023/12/31 07:38:23;;;;;;;0.88;0.88;;;;;;;5.65;100.00;94982.09;5005601;28;20252;-71
2023/12/31 07:40:50;;;;;;;0.20;0.20;;;;;;;5.67;100.00;94985.31;5003750;28;20605;-74
2023/12/31 07:43:17;;;;;;;2.42;1.88;;;;;;;5.44;100.00;94979.94;5001637;28;20232;-73
2023/12/31 07:45:44;;;;;;;0.20;0.20;;;;;;;5.33;99.69;94984.63;4998733;28;20682;-71
2023/12/31 07:48:11;;;;;;;0.30;0.30;;;;;;;5.38;100.00;94981.88;4996307;28;20244;-71
2023/12/31 07:50:38;;;;;;;1.85;1.08;;;;;;;5.54;99.98;94990.56;4997772;28;20289;-70
2023/12/31 07:53:07;;;;;;;0.30;0.30;;;;;;;5.62;99.19;94988.03;5000599;28;20208;-70
2023/12/31 07:55:36;;;;;;;0.40;0.40;;;;;;;5.92;99.32;94988.78;5000506;28;20235;-73
2023/12/31 07:58:03;;;;;;;0.30;0.30;;;;;;;5.89;98.52;94998.22;4995826;28;20328;-72
2023/12/31 08:00:30;;;;;;;0.20;0.20;;;;;;;6.03;97.35;94992.94;4998439;28;20200;-70
2023/12/31 08:02:57;;;;;;;1.17;1.10;;;;;;;6.13;97.03;95003.56;4998945;28;20205;-71
2023/12/31 08:05:24;;;;;;;0.22;0.22;;;;;;;6.26;96.31;95002.03;5002908;28;20209;-72
2023/12/31 08:07:51;;;;;;;0.30;0.30;;;;;;;6.22;95.89;94991.06;5000398;28;20689;-72
2023/12/31 08:10:20;;;;;;;0.20;0.20;;;;;;;6.28;96.36;94989.09;4999895;28;20216;-72
2023/12/31 08:12:47;;;;;;;0.70;0.70;;;;;;;6.12;96.17;94996.59;5002611;28;20774;-72
2023/12/31 08:15:14;;;;;;;0.82;0.82;;;;;;;6.18;95.94;94990.03;5001306;28;20213;-71
2023/12/31 08:17:44;;;;;;;1.17;1.08;;;;;;;6.39;95.42;94996.72;5000532;28;20201;-71
2023/12/31 08:20:12;;;;;;;0.55;0.55;;;;;;;6.13;96.12;95003.56;4998449;28;20223;-70
2023/12/31 08:22:38;;;;;;;0.73;0.73;;;;;;;6.10;96.80;95006.81;5001348;28;20220;-72
2023/12/31 08:25:06;;;;;;;2.78;1.08;;;;;;;6.36;96.06;94997.31;5001858;28;20212;-71
2023/12/31 08:27:35;;;;;;;0.20;0.20;;;;;;;6.57;95.53;94996.97;4995911;28;20941;-71
2023/12/31 08:30:02;;;;;;;0.90;0.85;;;;;;;6.48;95.35;94982.59;4997316;28;20206;-70
2023/12/31 08:32:29;;;;;;;0.63;0.40;;;;;;;6.62;94.82;94991.53;4996911;28;20209;-70
2023/12/31 08:34:56;;;;;;;0.30;0.30;;;;;;;6.86;94.33;94997.59;5002159;28;20209;-71
2023/12/31 08:37:23;;;;;;;3.00;1.23;;;;;;;6.71;93.90;94987.06;4998249;28;20633;-73
2023/12/31 08:39:50;;;;;;;0.40;0.40;;;;;;;6.89;93.67;94994.31;5004038;28;20208;-71
2023/12/31 08:42:17;;;;;;;1.02;0.95;;;;;;;7.04;93.01;95002.13;4998907;28;20225;-71
2023/12/31 08:44:45;;;;;;;0.52;0.52;;;;;;;7.21;92.50;94993.50;5002765;28;20232;-71
2023/12/31 08:47:12;;;;;;;0.70;0.70;;;;;;;7.23;91.60;95006.69;4997854;28;20225;-70
2023/12/31 08:49:39;;;;;;;0.70;0.70;;;;;;;7.21;91.61;95000.78;5016028;28;20218;-74
2023/12/31 08:52:07;;;;;;;0.68;0.55;;;;;;;7.43;91.14;94992.81;5007041;28;20650;-72
2023/12/31 08:54:34;;;;;;;0.98;0.95;;;;;;;7.44;90.62;94994.41;5008287;28;20291;-72
2023/12/31 08:57:01;;;;;;;2.00;1.58;;;;;;;7.41;90.26;94989.63;5004730;28;20264;-74
2023/12/31 08:59:27;;;;;;;0.43;0.43;;;;;;;7.41;90.34;94995.00;5003733;28;20568;-73
2023/12/31 09:01:56;;;;;;;0.60;0.60;;;;;;;7.53;89.88;94987.22;4997438;28;20216;-73
2023/12/31 09:04:23;;;;;;;0.73;0.73;;;;;;;7.73;89.47;94981.44;5004847;28;20209;-72
2023/12/31 09:06:50;;;;;;;2.83;2.15;;;;;;;7.62;89.16;94985.44;5000214;28;20268;-71
2023/12/31 09:09:17;;;;;;;0.35;0.35;;;;;;;7.60;89.62;94987.63;5013259;28;20216;-73
2023/12/31 09:11:45;;;;;;;0.43;0.43;;;;;;;7.71;89.43;94983.63;5011445;28;20212;-72
2023/12/31 09:14:12;;;;;;;0.80;0.80;;;;;;;7.80;88.51;94987.22;5004601;28;20658;-70
2023/12/31 09:16:39;;;;;;;0.47;0.47;;;;;;;7.89;88.21;94970.34;5004993;28;20221;-73
2023/12/31 09:19:08;;;;;;;0.52;0.52;;;;;;;7.91;88.11;94965.44;5013483;28;20554;-74
2023/12/31 09:21:36;;;;;;;1.35;1.00;;;;;;;7.95;87.88;94972.63;5008004;28;20271;-74
2023/12/31 09:24:04;;;;;;;0.73;0.73;;;;;;;8.00;87.15;94969.03;5008214;28;20689;-73
2023/12/31 09:26:31;;;;;;;0.20;0.20;;;;;;;8.24;86.75;94966.88;5002902;28;20581;-73
2023/12/31 09:29:01;;;;;;;0.50;0.50;;;;;;;8.31;85.99;94961.06;4999320;28;20614;-74
2023/12/31 09:31:27;;;;;;;0.60;0.60;;;;;;;8.42;86.00;94955.16;5007994;28;20216;-74
2023/12/31 09:33:54;;;;;;;0.30;0.30;;;;;;;8.42;85.43;94948.94;5013748;28;20213;-74
2023/12/31 09:36:24;;;;;;;1.83;1.05;;;;;;;8.55;85.21;94948.91;4999323;28;20205;-74
2023/12/31 09:38:54;;;;;;;0.63;0.47;;;;;;;8.45;85.22;94949.16;4993544;28;20216;-74
2023/12/31 09:41:23;;;;;;;0.43;0.43;;;;;;;8.54;85.39;94941.09;4993638;28;20213;-73
2023/12/31 09:43:52;;;;;;;1.85;1.63;;;;;;;8.66;84.66;94948.66;5007519;28;20262;-74
2023/12/31 09:46:21;;;;;;;2.50;1.65;;;;;;;8.78;84.41;94946.19;5001689;28;20208;-71
2023/12/31 09:48:50;;;;;;;1.50;1.02;;;;;;;9.11;83.64;94939.41;5001454;28;20225;-69
2023/12/31 09:51:18;;;;;;;0.73;0.73;;;;;;;9.32;82.95;94934.22;5005668;28;20574;-73
2023/12/31 09:53:48;;;;;;;0.50;0.50;;;;;;;9.26;81.92;94930.88;4998823;28;20217;-73
2023/12/31 09:56:17;;;;;;;1.27;0.68;;;;;;;9.38;81.55;94924.09;5009342;28;20232;-72
2023/12/31 09:58:45;;;;;;;2.42;1.95;;;;;;;9.36;81.25;94919.00;4999089;28;20323;-71
2023/12/31 10:01:12;;;;;;;0.75;0.75;;;;;;;9.54;81.22;94914.44;5010496;28;20212;-71
2023/12/31 10:03:42;;;;;;;0.50;0.50;;;;;;;9.82;80.89;94904.97;4989941;28;20662;-71
2023/12/31 10:06:09;;;;;;;0.65;0.65;;;;;;;10.00;80.10;94900.38;4992187;28;20209;-71
2023/12/31 10:08:38;;;;;;;2.05;1.23;;;;;;;9.89;78.87;94889.06;4992035;28;20230;-73
2023/12/31 10:11:07;;;;;;;0.95;0.95;;;;;;;10.21;78.43;94889.75;4999664;28;20249;-70
2023/12/31 10:13:34;;;;;;;0.95;0.93;;;;;;;10.03;78.25;94888.13;4992449;28;20285;-71
2023/12/31 10:16:12;;;;;;;2.47;1.88;;;;;;;10.30;78.17;94887.84;4992380;28;20221;-70
2023/12/31 10:18:39;;;;;;;0.45;0.45;;;;;;;10.54;77.84;94888.13;5011852;28;20300;-71
2023/12/31 10:21:08;;;;;;;2.30;0.77;;;;;;;10.38;76.26;94887.06;4996997;28;20216;-70
2023/12/31 10:23:37;;;;;;;1.05;0.95;;;;;;;10.48;76.66;94884.00;4992876;28;20210;-71
2023/12/31 10:26:05;;;;;;;0.52;0.52;;;;;;;10.51;75.80;94880.66;5005062;28;20209;-71
2023/12/31 10:28:33;;;;;;;1.35;1.25;;;;;;;10.13;77.13;94876.97;5002252;28;20229;-73
2023/12/31 10:31:00;;;;;;;0.70;0.70;;;;;;;10.04;77.44;94868.06;5007135;28;20571;-72
2023/12/31 10:33:29;;;;;;;0.82;0.73;;;;;;;10.42;76.69;94871.72;5007022;28;20201;-73
2023/12/31 10:36:04;;;;;;;0.43;0.43;;;;;;;10.25;76.01;94863.66;5009350;28;20212;-73
2023/12/31 10:38:47;;;;;;;3.97;2.45;;;;;;;10.09;77.14;94871.41;5003346;28;20295;-74
2023/12/31 10:41:20;;;;;;;0.77;0.77;;;;;;;9.92;77.67;94866.78;4997444;28;20554;-72
2023/12/31 10:43:48;;;;;;;1.40;0.77;;;;;;;10.01;77.90;94868.69;5004039;28;20753;-72
2023/12/31 10:46:16;;;;;;;0.90;0.90;;;;;;;10.10;77.50;94864.09;5004473;28;20212;-72
2023/12/31 10:48:47;;;;;;;0.88;0.88;;;;;;;10.29;77.44;94857.25;5000489;28;20259;-72
2023/12/31 10:51:22;;;;;;;2.35;1.95;;;;;;;10.43;76.43;94848.94;5010627;28;20223;-74
2023/12/31 10:53:51;;;;;;;4.35;3.15;;;;;;;10.37;76.22;94844.03;4996391;28;20200;-75
2023/12/31 10:56:21;;;;;;;3.83;2.40;;;;;;;10.34;76.39;94850.88;5006233;28;20638;-75
2023/12/31 10:58:48;;;;;;;1.48;0.73;;;;;;;10.49;75.82;94836.06;5000969;28;20230;-75
2023/12/31 11:01:17;;;;;;;0.47;0.47;;;;;;;10.57;75.45;94833.31;5005953;28;20206;-73
2023/12/31 11:03:44;;;;;;;0.65;0.65;;;;;;;10.66;74.97;94831.38;5001888;28;20232;-72
2023/12/31 11:06:12;;;;;;;0.47;0.45;;;;;;;10.83;74.74;94829.75;4997249;28;20201;-72
2023/12/31 11:08:41;;;;;;;5.68;2.65;;;;;;;10.91;75.13;94820.81;5002188;28;20227;-74
2023/12/31 11:11:08;;;;;;;0.60;0.50;;;;;;;11.14;73.75;94805.88;4996693;28;20211;-73
2023/12/31 11:13:40;;;;;;;0.47;0.47;;;;;;;11.15;73.93;94799.31;5001489;28;20200;-72
2023/12/31 11:16:15;;;;;;;0.60;0.60;;;;;;;11.28;73.31;94803.72;5000701;28;20284;-73
2023/12/31 11:19:06;;;;;;;1.40;1.33;;;;;;;11.31;73.32;94786.00;5003151;28;20635;-74
2023/12/31 11:21:54;;;;;;;0.40;0.40;;;;;;;11.59;72.43;94781.69;5007666;28;20284;-71
2023/12/31 11:24:26;;;;;;;1.20;1.15;;;;;;;11.56;73.16;94786.97;5005354;28;20225;-72
2023/12/31 11:27:16;;;;;;;0.43;0.43;;;;;;;11.75;71.55;94773.75;5002338;28;20255;-72
2023/12/31 11:29:50;;;;;;;0.30;0.30;;;;;;;11.85;70.90;94773.38;5001604;28;20241;-72
2023/12/31 11:32:17;;;;;;;0.60;0.60;;;;;;;11.82;71.45;94768.59;5000565;28;20247;-73
2023/12/31 11:34:45;;;;;;;0.43;0.43;;;;;;;11.77;71.09;94763.34;5001147;28;20213;-73
2023/12/31 11:37:13;;;;;;;0.25;0.25;;;;;;;11.82;71.80;94760.47;5003450;28;20201;-73
2023/12/31 11:39:39;;;;;;;0.75;0.75;;;;;;;11.93;70.74;94758.13;5000854;28;20206;-71